sensor_id;sensor_type;location;lat;lon;timestamp;pressure;altitude;pressure_sealevel;temperature;humidity
73870;BME280;64924;42.140;24.762;2023-09-19T00:01:08;100047.41;;;21.15;48.33
73870;BME280;64924;42.140;24.762;2023-09-19T00:03:34;100025.16;;;21.05;48.71
73870;BME280;64924;42.140;24.762;2023-09-19T00:06:03;100053.66;;;21.27;48.41
73870;BME280;64924;42.140;24.762;2023-09-19T00:08:30;100059.75;;;21.29;48.43
73870;BME280;64924;42.140;24.762;2023-09-19T00:10:56;100055.06;;;21.30;48.29
73870;BME280;64924;42.140;24.762;2023-09-19T00:13:21;100062.00;;;21.32;48.40
73870;BME280;64924;42.140;24.762;2023-09-19T00:15:48;100041.50;;;21.28;48.09
73870;BME280;64924;42.140;24.762;2023-09-19T00:18:14;100043.00;;;21.36;47.86
73870;BME280;64924;42.140;24.762;2023-09-19T00:20:41;100057.19;;;21.45;48.01
73870;BME280;64924;42.140;24.762;2023-09-19T00:23:07;100046.66;;;21.42;47.50
73870;BME280;64924;42.140;24.762;2023-09-19T00:25:36;100043.91;;;21.42;47.21
73870;BME280;64924;42.140;24.762;2023-09-19T00:28:06;100039.25;;;21.47;46.72
73870;BME280;64924;42.140;24.762;2023-09-19T00:30:33;100036.44;;;21.42;46.71
73870;BME280;64924;42.140;24.762;2023-09-19T00:32:59;100045.38;;;21.49;46.40
73870;BME280;64924;42.140;24.762;2023-09-19T00:35:26;100056.19;;;21.51;46.01
73870;BME280;64924;42.140;24.762;2023-09-19T00:37:53;100049.56;;;21.52;45.81
73870;BME280;64924;42.140;24.762;2023-09-19T00:40:18;100032.84;;;21.42;45.79
73870;BME280;64924;42.140;24.762;2023-09-19T00:42:45;100033.66;;;21.42;45.50
73870;BME280;64924;42.140;24.762;2023-09-19T00:45:13;100043.13;;;21.46;45.18
73870;BME280;64924;42.140;24.762;2023-09-19T00:47:39;100047.56;;;21.47;44.79
73870;BME280;64924;42.140;24.762;2023-09-19T00:50:08;100040.63;;;21.45;44.63
73870;BME280;64924;42.140;24.762;2023-09-19T00:52:38;100044.53;;;21.49;44.73
73870;BME280;64924;42.140;24.762;2023-09-19T00:55:08;100041.13;;;21.42;44.84
73870;BME280;64924;42.140;24.762;2023-09-19T00:57:34;100042.09;;;21.30;44.96
73870;BME280;64924;42.140;24.762;2023-09-19T01:00:02;100042.59;;;21.27;45.23
73870;BME280;64924;42.140;24.762;2023-09-19T01:02:33;100033.97;;;21.24;45.19
73870;BME280;64924;42.140;24.762;2023-09-19T01:04:59;100044.19;;;21.23;45.01
73870;BME280;64924;42.140;24.762;2023-09-19T01:07:26;100041.34;;;21.18;45.14
73870;BME280;64924;42.140;24.762;2023-09-19T01:09:56;100004.56;;;20.96;45.14
73870;BME280;64924;42.140;24.762;2023-09-19T01:12:33;100025.44;;;21.25;44.82
73870;BME280;64924;42.140;24.762;2023-09-19T01:26:45;100034.66;;;21.14;45.66
73870;BME280;64924;42.140;24.762;2023-09-19T01:29:29;100023.88;;;21.13;45.61
73870;BME280;64924;42.140;24.762;2023-09-19T01:32:03;100025.91;;;21.00;45.89
73870;BME280;64924;42.140;24.762;2023-09-19T01:34:48;100034.09;;;21.12;45.86
73870;BME280;64924;42.140;24.762;2023-09-19T01:37:19;100041.09;;;20.81;46.41
73870;BME280;64924;42.140;24.762;2023-09-19T01:39:51;100039.16;;;20.82;46.38
73870;BME280;64924;42.140;24.762;2023-09-19T01:42:20;100035.00;;;20.79;46.37
73870;BME280;64924;42.140;24.762;2023-09-19T01:45:06;100036.66;;;20.80;46.29
73870;BME280;64924;42.140;24.762;2023-09-19T01:47:42;100016.84;;;20.66;46.71
73870;BME280;64924;42.140;24.762;2023-09-19T01:53:10;100021.75;;;20.81;46.65
73870;BME280;64924;42.140;24.762;2023-09-19T01:55:43;100020.88;;;20.76;46.67
73870;BME280;64924;42.140;24.762;2023-09-19T01:58:20;100028.50;;;20.68;46.87
73870;BME280;64924;42.140;24.762;2023-09-19T02:00:48;100029.25;;;20.64;46.91
73870;BME280;64924;42.140;24.762;2023-09-19T02:03:18;100020.88;;;20.59;47.11
73870;BME280;64924;42.140;24.762;2023-09-19T02:05:53;100028.25;;;20.70;47.01
73870;BME280;64924;42.140;24.762;2023-09-19T02:08:20;100024.22;;;20.61;46.89
73870;BME280;64924;42.140;24.762;2023-09-19T02:10:48;100031.16;;;20.63;46.91
73870;BME280;64924;42.140;24.762;2023-09-19T02:13:16;100010.13;;;20.41;47.33
73870;BME280;64924;42.140;24.762;2023-09-19T02:15:42;100024.91;;;20.51;47.27
73870;BME280;64924;42.140;24.762;2023-09-19T02:18:09;100010.69;;;20.43;47.23
73870;BME280;64924;42.140;24.762;2023-09-19T02:20:35;100011.59;;;20.48;47.13
73870;BME280;64924;42.140;24.762;2023-09-19T02:23:00;100014.69;;;20.52;47.25
73870;BME280;64924;42.140;24.762;2023-09-19T02:25:27;100008.91;;;20.53;46.98
73870;BME280;64924;42.140;24.762;2023-09-19T02:27:53;99988.34;;;20.44;47.09
73870;BME280;64924;42.140;24.762;2023-09-19T02:30:19;100003.41;;;20.53;46.91
73870;BME280;64924;42.140;24.762;2023-09-19T02:32:48;100010.50;;;20.49;46.98
73870;BME280;64924;42.140;24.762;2023-09-19T02:35:14;100027.75;;;20.56;46.78
73870;BME280;64924;42.140;24.762;2023-09-19T02:37:44;100011.00;;;20.63;46.77
73870;BME280;64924;42.140;24.762;2023-09-19T02:40:10;100015.44;;;20.47;47.02
73870;BME280;64924;42.140;24.762;2023-09-19T02:42:45;100009.59;;;20.44;46.86
73870;BME280;64924;42.140;24.762;2023-09-19T02:45:12;99926.47;;;19.90;46.71
73870;BME280;64924;42.140;24.762;2023-09-19T02:47:40;100012.69;;;20.47;46.99
73870;BME280;64924;42.140;24.762;2023-09-19T02:50:06;100016.53;;;20.46;47.03
73870;BME280;64924;42.140;24.762;2023-09-19T02:52:31;99972.28;;;20.24;46.85
73870;BME280;64924;42.140;24.762;2023-09-19T02:54:57;100016.19;;;20.43;46.60
73870;BME280;64924;42.140;24.762;2023-09-19T02:57:22;100006.00;;;20.43;46.47
73870;BME280;64924;42.140;24.762;2023-09-19T02:59:49;100005.16;;;20.43;46.51
73870;BME280;64924;42.140;24.762;2023-09-19T03:02:15;100011.78;;;20.42;46.63
73870;BME280;64924;42.140;24.762;2023-09-19T03:04:41;100007.59;;;20.39;46.41
73870;BME280;64924;42.140;24.762;2023-09-19T03:07:06;99956.81;;;20.07;46.57
73870;BME280;64924;42.140;24.762;2023-09-19T03:09:32;100004.84;;;20.39;46.19
73870;BME280;64924;42.140;24.762;2023-09-19T03:11:57;100012.50;;;20.37;46.45
73870;BME280;64924;42.140;24.762;2023-09-19T03:14:23;99990.25;;;20.27;46.38
73870;BME280;64924;42.140;24.762;2023-09-19T03:16:49;100008.56;;;20.33;46.21
73870;BME280;64924;42.140;24.762;2023-09-19T03:19:15;100013.50;;;20.31;46.10
73870;BME280;64924;42.140;24.762;2023-09-19T03:21:41;100009.00;;;20.25;46.30
73870;BME280;64924;42.140;24.762;2023-09-19T03:24:06;100009.00;;;20.25;46.22
73870;BME280;64924;42.140;24.762;2023-09-19T03:26:32;99999.53;;;20.21;46.13
73870;BME280;64924;42.140;24.762;2023-09-19T03:28:58;99999.19;;;20.17;46.19
73870;BME280;64924;42.140;24.762;2023-09-19T03:31:24;99979.41;;;20.03;46.21
73870;BME280;64924;42.140;24.762;2023-09-19T03:33:49;99977.53;;;19.92;46.49
73870;BME280;64924;42.140;24.762;2023-09-19T03:36:15;99985.41;;;20.00;46.38
73870;BME280;64924;42.140;24.762;2023-09-19T03:38:40;100017.75;;;20.05;46.64
73870;BME280;64924;42.140;24.762;2023-09-19T03:41:05;100006.41;;;20.01;46.59
73870;BME280;64924;42.140;24.762;2023-09-19T03:43:34;99997.53;;;19.99;46.85
73870;BME280;64924;42.140;24.762;2023-09-19T03:46:02;100003.38;;;20.03;46.99
73870;BME280;64924;42.140;24.762;2023-09-19T03:48:31;99997.09;;;19.91;46.99
73870;BME280;64924;42.140;24.762;2023-09-19T03:50:57;100006.31;;;19.96;46.71
73870;BME280;64924;42.140;24.762;2023-09-19T03:53:22;99980.03;;;19.77;46.91
73870;BME280;64924;42.140;24.762;2023-09-19T03:55:48;100012.91;;;19.95;46.88
73870;BME280;64924;42.140;24.762;2023-09-19T03:58:14;99958.28;;;19.64;46.90
73870;BME280;64924;42.140;24.762;2023-09-19T04:00:39;99981.69;;;19.78;47.08
73870;BME280;64924;42.140;24.762;2023-09-19T04:03:05;100014.81;;;19.95;47.49
73870;BME280;64924;42.140;24.762;2023-09-19T04:05:31;100000.59;;;19.86;47.24
73870;BME280;64924;42.140;24.762;2023-09-19T04:07:58;100003.09;;;19.88;47.25
73870;BME280;64924;42.140;24.762;2023-09-19T04:10:23;100016.25;;;19.97;46.89
73870;BME280;64924;42.140;24.762;2023-09-19T04:12:52;100016.66;;;20.06;47.01
73870;BME280;64924;42.140;24.762;2023-09-19T04:15:18;100011.66;;;20.03;46.91
73870;BME280;64924;42.140;24.762;2023-09-19T04:17:44;100006.88;;;20.15;46.43
73870;BME280;64924;42.140;24.762;2023-09-19T04:20:10;100012.19;;;20.33;46.17
73870;BME280;64924;42.140;24.762;2023-09-19T04:22:37;99993.28;;;20.42;45.77
73870;BME280;64924;42.140;24.762;2023-09-19T04:25:04;100004.31;;;20.76;45.05
73870;BME280;64924;42.140;24.762;2023-09-19T04:27:29;100010.50;;;21.05;44.53
73870;BME280;64924;42.140;24.762;2023-09-19T04:29:55;99998.13;;;21.29;43.68
73870;BME280;64924;42.140;24.762;2023-09-19T04:32:26;100000.50;;;21.69;42.97
73870;BME280;64924;42.140;24.762;2023-09-19T04:34:53;100007.06;;;22.12;42.11
73870;BME280;64924;42.140;24.762;2023-09-19T04:37:19;100015.69;;;22.52;41.59
73870;BME280;64924;42.140;24.762;2023-09-19T04:39:44;100009.38;;;22.99;40.37
73870;BME280;64924;42.140;24.762;2023-09-19T04:42:13;99973.47;;;23.29;39.21
73870;BME280;64924;42.140;24.762;2023-09-19T04:44:40;100004.69;;;23.77;38.20
73870;BME280;64924;42.140;24.762;2023-09-19T04:47:05;100001.69;;;24.04;37.61
73870;BME280;64924;42.140;24.762;2023-09-19T04:49:31;99953.13;;;24.27;36.77
73870;BME280;64924;42.140;24.762;2023-09-19T04:51:56;99980.50;;;24.94;35.89
73870;BME280;64924;42.140;24.762;2023-09-19T04:54:22;100009.50;;;25.53;34.77
73870;BME280;64924;42.140;24.762;2023-09-19T04:56:48;99994.44;;;26.03;34.11
73870;BME280;64924;42.140;24.762;2023-09-19T04:59:13;99990.00;;;26.41;33.36
73870;BME280;64924;42.140;24.762;2023-09-19T05:01:40;99992.31;;;26.63;32.70
73870;BME280;64924;42.140;24.762;2023-09-19T05:04:05;99997.53;;;26.99;32.05
73870;BME280;64924;42.140;24.762;2023-09-19T05:06:31;99994.00;;;27.36;31.93
73870;BME280;64924;42.140;24.762;2023-09-19T05:08:56;99990.91;;;27.61;31.54
73870;BME280;64924;42.140;24.762;2023-09-19T05:11:22;99991.59;;;27.90;30.61
73870;BME280;64924;42.140;24.762;2023-09-19T05:13:48;99998.75;;;28.34;30.24
73870;BME280;64924;42.140;24.762;2023-09-19T05:16:18;100003.09;;;28.73;29.43
73870;BME280;64924;42.140;24.762;2023-09-19T05:18:44;99996.53;;;28.96;29.44
73870;BME280;64924;42.140;24.762;2023-09-19T05:21:10;99981.91;;;29.13;28.56
73870;BME280;64924;42.140;24.762;2023-09-19T05:23:35;100004.84;;;29.56;28.19
73870;BME280;64924;42.140;24.762;2023-09-19T05:26:02;99975.47;;;29.53;27.64
73870;BME280;64924;42.140;24.762;2023-09-19T05:28:29;100002.78;;;29.84;27.79
73870;BME280;64924;42.140;24.762;2023-09-19T05:30:54;99999.28;;;30.14;27.32
73870;BME280;64924;42.140;24.762;2023-09-19T05:33:20;99981.28;;;30.29;27.57
73870;BME280;64924;42.140;24.762;2023-09-19T05:35:47;100000.38;;;30.72;26.82
73870;BME280;64924;42.140;24.762;2023-09-19T05:38:13;99999.06;;;30.69;26.81
73870;BME280;64924;42.140;24.762;2023-09-19T05:40:40;99961.75;;;30.69;26.71
73870;BME280;64924;42.140;24.762;2023-09-19T05:43:10;99995.84;;;31.15;26.03
73870;BME280;64924;42.140;24.762;2023-09-19T05:45:35;100006.16;;;31.37;25.93
73870;BME280;64924;42.140;24.762;2023-09-19T05:48:12;100004.41;;;31.67;25.57
73870;BME280;64924;42.140;24.762;2023-09-19T05:50:42;100011.72;;;31.85;25.21
73870;BME280;64924;42.140;24.762;2023-09-19T05:53:07;99960.31;;;31.76;24.81
73870;BME280;64924;42.140;24.762;2023-09-19T05:55:33;100014.88;;;32.36;24.76
73870;BME280;64924;42.140;24.762;2023-09-19T05:57:59;99994.47;;;32.82;24.05
73870;BME280;64924;42.140;24.762;2023-09-19T06:00:25;99975.63;;;33.12;23.11
73870;BME280;64924;42.140;24.762;2023-09-19T06:02:53;99997.53;;;33.74;22.77
73870;BME280;64924;42.140;24.762;2023-09-19T06:05:20;99989.34;;;33.81;22.23
73870;BME280;64924;42.140;24.762;2023-09-19T06:07:46;99979.59;;;33.49;22.38
73870;BME280;64924;42.140;24.762;2023-09-19T06:10:12;99967.34;;;33.15;22.60
73870;BME280;64924;42.140;24.762;2023-09-19T06:12:44;99976.09;;;33.22;22.79
73870;BME280;64924;42.140;24.762;2023-09-19T06:15:11;99979.56;;;33.19;22.90
73870;BME280;64924;42.140;24.762;2023-09-19T06:17:49;99978.34;;;33.38;22.58
73870;BME280;64924;42.140;24.762;2023-09-19T06:20:16;99970.75;;;33.59;22.87
73870;BME280;64924;42.140;24.762;2023-09-19T06:22:42;99984.22;;;34.04;22.19
73870;BME280;64924;42.140;24.762;2023-09-19T06:25:09;99981.56;;;34.19;21.84
73870;BME280;64924;42.140;24.762;2023-09-19T06:27:40;99985.22;;;34.20;21.95
73870;BME280;64924;42.140;24.762;2023-09-19T06:30:10;99983.09;;;34.38;21.45
73870;BME280;64924;42.140;24.762;2023-09-19T06:32:40;99973.66;;;34.67;21.65
73870;BME280;64924;42.140;24.762;2023-09-19T06:35:12;99963.25;;;34.92;21.28
73870;BME280;64924;42.140;24.762;2023-09-19T06:37:38;99957.00;;;34.98;21.33
73870;BME280;64924;42.140;24.762;2023-09-19T06:40:11;99917.59;;;35.14;20.79
73870;BME280;64924;42.140;24.762;2023-09-19T06:42:44;99965.50;;;35.10;21.10
73870;BME280;64924;42.140;24.762;2023-09-19T06:45:11;99958.53;;;34.83;21.77
73870;BME280;64924;42.140;24.762;2023-09-19T06:47:43;99951.03;;;34.88;21.88
73870;BME280;64924;42.140;24.762;2023-09-19T06:50:09;99960.47;;;34.71;21.75
73870;BME280;64924;42.140;24.762;2023-09-19T06:52:40;99973.22;;;34.23;22.53
73870;BME280;64924;42.140;24.762;2023-09-19T06:55:06;99934.28;;;33.83;23.05
73870;BME280;64924;42.140;24.762;2023-09-19T06:57:32;99966.84;;;33.72;23.55
73870;BME280;64924;42.140;24.762;2023-09-19T06:59:57;99962.53;;;33.45;23.70
73870;BME280;64924;42.140;24.762;2023-09-19T07:02:23;99927.44;;;32.75;23.96
73870;BME280;64924;42.140;24.762;2023-09-19T07:04:48;99956.16;;;32.34;24.69
73870;BME280;64924;42.140;24.762;2023-09-19T07:07:15;99970.88;;;31.97;25.05
73870;BME280;64924;42.140;24.762;2023-09-19T07:09:41;99948.50;;;31.57;26.03
73870;BME280;64924;42.140;24.762;2023-09-19T07:12:07;99959.75;;;31.57;26.08
73870;BME280;64924;42.140;24.762;2023-09-19T07:14:33;99924.38;;;31.47;26.60
73870;BME280;64924;42.140;24.762;2023-09-19T07:16:58;99953.19;;;31.70;26.02
73870;BME280;64924;42.140;24.762;2023-09-19T07:19:27;99954.28;;;31.61;26.15
73870;BME280;64924;42.140;24.762;2023-09-19T07:21:54;99949.44;;;31.27;26.28
73870;BME280;64924;42.140;24.762;2023-09-19T07:24:19;99949.81;;;30.94;26.58
73870;BME280;64924;42.140;24.762;2023-09-19T07:26:47;99967.25;;;31.13;26.86
73870;BME280;64924;42.140;24.762;2023-09-19T07:29:13;99929.00;;;31.35;26.50
73870;BME280;64924;42.140;24.762;2023-09-19T07:31:38;99961.81;;;31.91;25.85
73870;BME280;64924;42.140;24.762;2023-09-19T07:34:04;99958.31;;;32.03;25.73
73870;BME280;64924;42.140;24.762;2023-09-19T07:36:30;99948.59;;;31.92;26.03
73870;BME280;64924;42.140;24.762;2023-09-19T07:38:57;99940.94;;;32.18;25.48
73870;BME280;64924;42.140;24.762;2023-09-19T07:41:24;99957.94;;;32.47;24.91
73870;BME280;64924;42.140;24.762;2023-09-19T07:43:50;99883.28;;;32.59;24.42
73870;BME280;64924;42.140;24.762;2023-09-19T07:46:16;99936.69;;;33.14;24.15
73870;BME280;64924;42.140;24.762;2023-09-19T07:48:42;99934.81;;;33.27;24.21
73870;BME280;64924;42.140;24.762;2023-09-19T07:51:13;99927.22;;;33.27;24.10
73870;BME280;64924;42.140;24.762;2023-09-19T07:53:41;99932.19;;;33.51;23.98
73870;BME280;64924;42.140;24.762;2023-09-19T07:56:09;99929.03;;;33.73;23.59
73870;BME280;64924;42.140;24.762;2023-09-19T07:58:35;99920.66;;;33.85;23.58
73870;BME280;64924;42.140;24.762;2023-09-19T08:01:09;99904.84;;;33.72;23.47
73870;BME280;64924;42.140;24.762;2023-09-19T08:03:36;99906.84;;;33.21;23.82
73870;BME280;64924;42.140;24.762;2023-09-19T08:06:10;99899.13;;;32.25;25.49
73870;BME280;64924;42.140;24.762;2023-09-19T08:08:36;99911.47;;;32.33;25.44
73870;BME280;64924;42.140;24.762;2023-09-19T08:11:05;99915.25;;;32.54;24.83
73870;BME280;64924;42.140;24.762;2023-09-19T08:13:41;99871.47;;;32.10;25.69
73870;BME280;64924;42.140;24.762;2023-09-19T08:16:12;99901.03;;;32.50;25.26
73870;BME280;64924;42.140;24.762;2023-09-19T08:18:40;99908.16;;;32.39;24.44
73870;BME280;64924;42.140;24.762;2023-09-19T08:21:06;99905.06;;;32.23;25.04
73870;BME280;64924;42.140;24.762;2023-09-19T08:23:37;99899.88;;;32.43;24.85
73870;BME280;64924;42.140;24.762;2023-09-19T08:26:03;99888.91;;;32.59;24.11
73870;BME280;64924;42.140;24.762;2023-09-19T08:28:32;99842.88;;;32.08;24.95
73870;BME280;64924;42.140;24.762;2023-09-19T08:31:04;99855.69;;;32.43;24.77
73870;BME280;64924;42.140;24.762;2023-09-19T08:33:32;99884.31;;;32.45;23.91
73870;BME280;64924;42.140;24.762;2023-09-19T08:35:58;99880.09;;;32.05;24.57
73870;BME280;64924;42.140;24.762;2023-09-19T08:38:23;99870.19;;;31.47;25.17
73870;BME280;64924;42.140;24.762;2023-09-19T08:40:49;99877.09;;;31.23;25.63
73870;BME280;64924;42.140;24.762;2023-09-19T08:43:14;99875.00;;;30.81;25.75
73870;BME280;64924;42.140;24.762;2023-09-19T08:45:40;99868.38;;;30.85;26.07
73870;BME280;64924;42.140;24.762;2023-09-19T08:50:31;99835.72;;;30.41;26.71
73870;BME280;64924;42.140;24.762;2023-09-19T08:53:10;99855.69;;;30.88;26.46
73870;BME280;64924;42.140;24.762;2023-09-19T08:55:40;99857.88;;;31.00;26.17
73870;BME280;64924;42.140;24.762;2023-09-19T08:58:10;99866.75;;;30.93;26.74
73870;BME280;64924;42.140;24.762;2023-09-19T09:00:36;99876.31;;;30.75;26.28
73870;BME280;64924;42.140;24.762;2023-09-19T09:03:02;99865.13;;;30.92;26.07
73870;BME280;64924;42.140;24.762;2023-09-19T09:05:29;99869.50;;;31.33;25.59
73870;BME280;64924;42.140;24.762;2023-09-19T09:07:58;99849.03;;;31.67;25.29
73870;BME280;64924;42.140;24.762;2023-09-19T09:10:25;99855.78;;;32.09;24.95
73870;BME280;64924;42.140;24.762;2023-09-19T09:12:51;99835.44;;;32.12;24.81
73870;BME280;64924;42.140;24.762;2023-09-19T09:15:22;99841.56;;;32.22;24.37
73870;BME280;64924;42.140;24.762;2023-09-19T09:17:49;99844.59;;;31.92;24.77
73870;BME280;64924;42.140;24.762;2023-09-19T09:20:16;99841.94;;;31.78;25.08
73870;BME280;64924;42.140;24.762;2023-09-19T09:22:54;99841.63;;;31.79;25.11
73870;BME280;64924;42.140;24.762;2023-09-19T09:25:21;99842.78;;;31.78;25.29
73870;BME280;64924;42.140;24.762;2023-09-19T09:28:00;99844.03;;;31.98;25.36
73870;BME280;64924;42.140;24.762;2023-09-19T09:30:34;99805.75;;;31.76;25.52
73870;BME280;64924;42.140;24.762;2023-09-19T09:33:13;99828.88;;;31.56;25.93
73870;BME280;64924;42.140;24.762;2023-09-19T09:35:51;99834.16;;;31.23;26.02
73870;BME280;64924;42.140;24.762;2023-09-19T09:38:18;99819.03;;;30.84;26.76
73870;BME280;64924;42.140;24.762;2023-09-19T09:40:51;99826.44;;;30.72;27.35
73870;BME280;64924;42.140;24.762;2023-09-19T09:43:38;99823.81;;;30.75;26.72
73870;BME280;64924;42.140;24.762;2023-09-19T09:46:17;99824.50;;;30.81;27.19
73870;BME280;64924;42.140;24.762;2023-09-19T09:48:46;99806.84;;;30.80;27.22
73870;BME280;64924;42.140;24.762;2023-09-19T09:51:31;99806.50;;;30.90;26.93
73870;BME280;64924;42.140;24.762;2023-09-19T09:54:17;99797.09;;;30.78;26.57
73870;BME280;64924;42.140;24.762;2023-09-19T09:59:20;99800.34;;;30.63;26.74
73870;BME280;64924;42.140;24.762;2023-09-19T10:01:49;99742.88;;;30.12;27.46
73870;BME280;64924;42.140;24.762;2023-09-19T10:04:35;99807.25;;;30.56;27.64
73870;BME280;64924;42.140;24.762;2023-09-19T10:07:30;99789.44;;;30.21;27.43
73870;BME280;64924;42.140;24.762;2023-09-19T10:10:06;99804.31;;;29.77;27.76
73870;BME280;64924;42.140;24.762;2023-09-19T10:12:43;99801.53;;;29.33;28.21
73870;BME280;64924;42.140;24.762;2023-09-19T10:15:11;99796.03;;;28.78;29.30
73870;BME280;64924;42.140;24.762;2023-09-19T10:17:36;99798.63;;;28.74;29.51
73870;BME280;64924;42.140;24.762;2023-09-19T10:20:08;99801.00;;;28.81;29.52
73870;BME280;64924;42.140;24.762;2023-09-19T10:22:48;99746.19;;;28.80;29.28
73870;BME280;64924;42.140;24.762;2023-09-19T10:25:27;99791.94;;;29.47;28.99
73870;BME280;64924;42.140;24.762;2023-09-19T10:28:02;99782.81;;;29.42;28.58
73870;BME280;64924;42.140;24.762;2023-09-19T10:30:29;99764.44;;;29.49;28.54
73870;BME280;64924;42.140;24.762;2023-09-19T10:33:01;99779.63;;;30.02;28.03
73870;BME280;64924;42.140;24.762;2023-09-19T10:35:28;99766.88;;;30.26;27.95
73870;BME280;64924;42.140;24.762;2023-09-19T10:37:59;99773.03;;;30.46;27.45
73870;BME280;64924;42.140;24.762;2023-09-19T10:40:27;99770.41;;;30.49;27.23
73870;BME280;64924;42.140;24.762;2023-09-19T10:43:03;99744.50;;;30.52;27.32
73870;BME280;64924;42.140;24.762;2023-09-19T10:45:35;99759.59;;;30.65;26.94
73870;BME280;64924;42.140;24.762;2023-09-19T10:48:01;99747.38;;;30.61;27.30
73870;BME280;64924;42.140;24.762;2023-09-19T10:50:36;99751.03;;;30.79;26.52
73870;BME280;64924;42.140;24.762;2023-09-19T10:53:07;99700.84;;;30.60;27.23
73870;BME280;64924;42.140;24.762;2023-09-19T10:55:36;99730.22;;;30.71;26.67
73870;BME280;64924;42.140;24.762;2023-09-19T10:58:02;99741.59;;;30.57;26.86
73870;BME280;64924;42.140;24.762;2023-09-19T11:03:22;99682.16;;;30.38;26.78
73870;BME280;64924;42.140;24.762;2023-09-19T11:06:05;99729.25;;;31.02;26.26
73870;BME280;64924;42.140;24.762;2023-09-19T11:08:57;99732.75;;;31.24;26.29
73870;BME280;64924;42.140;24.762;2023-09-19T11:30:40;99698.25;;;29.84;27.95
73870;BME280;64924;42.140;24.762;2023-09-19T11:33:25;99682.78;;;29.87;27.79
73870;BME280;64924;42.140;24.762;2023-09-19T11:46:24;99657.00;;;30.16;27.74
73870;BME280;64924;42.140;24.762;2023-09-19T11:48:51;99658.56;;;30.48;27.23
73870;BME280;64924;42.140;24.762;2023-09-19T11:51:19;99642.94;;;30.73;26.72
73870;BME280;64924;42.140;24.762;2023-09-19T11:53:48;99646.22;;;31.09;26.50
73870;BME280;64924;42.140;24.762;2023-09-19T11:56:18;99634.16;;;31.09;25.90
73870;BME280;64924;42.140;24.762;2023-09-19T11:58:46;99651.81;;;31.27;25.78
73870;BME280;64924;42.140;24.762;2023-09-19T12:01:15;99628.69;;;31.30;26.00
73870;BME280;64924;42.140;24.762;2023-09-19T12:03:47;99633.97;;;31.31;25.66
73870;BME280;64924;42.140;24.762;2023-09-19T12:06:18;99635.78;;;31.36;25.87
73870;BME280;64924;42.140;24.762;2023-09-19T12:08:44;99637.59;;;31.32;25.63
73870;BME280;64924;42.140;24.762;2023-09-19T12:11:16;99557.06;;;30.98;25.70
73870;BME280;64924;42.140;24.762;2023-09-19T12:13:45;99577.81;;;31.31;25.27
73870;BME280;64924;42.140;24.762;2023-09-19T12:16:12;99626.88;;;31.80;25.17
73870;BME280;64924;42.140;24.762;2023-09-19T12:18:40;99630.53;;;32.10;25.25
73870;BME280;64924;42.140;24.762;2023-09-19T12:21:08;99623.53;;;32.25;24.27
73870;BME280;64924;42.140;24.762;2023-09-19T12:23:56;99597.94;;;32.09;24.71
73870;BME280;64924;42.140;24.762;2023-09-19T12:26:21;99622.84;;;32.28;24.33
73870;BME280;64924;42.140;24.762;2023-09-19T12:28:49;99635.94;;;32.24;24.38
73870;BME280;64924;42.140;24.762;2023-09-19T12:31:17;99623.28;;;32.01;24.54
73870;BME280;64924;42.140;24.762;2023-09-19T12:33:44;99630.69;;;31.76;24.58
73870;BME280;64924;42.140;24.762;2023-09-19T12:36:19;99630.53;;;31.64;25.45
73870;BME280;64924;42.140;24.762;2023-09-19T12:38:50;99627.25;;;31.62;25.07
73870;BME280;64924;42.140;24.762;2023-09-19T12:41:15;99622.94;;;31.64;24.89
73870;BME280;64924;42.140;24.762;2023-09-19T12:43:41;99622.78;;;31.69;24.73
73870;BME280;64924;42.140;24.762;2023-09-19T12:46:07;99610.88;;;31.72;25.17
73870;BME280;64924;42.140;24.762;2023-09-19T12:48:32;99608.91;;;31.73;24.95
73870;BME280;64924;42.140;24.762;2023-09-19T12:51:03;99606.25;;;31.76;24.85
73870;BME280;64924;42.140;24.762;2023-09-19T12:53:33;99605.38;;;31.84;24.61
73870;BME280;64924;42.140;24.762;2023-09-19T12:56:01;99606.53;;;31.83;24.86
73870;BME280;64924;42.140;24.762;2023-09-19T12:58:27;99604.13;;;31.94;24.82
73870;BME280;64924;42.140;24.762;2023-09-19T13:00:56;99602.03;;;31.91;24.24
73870;BME280;64924;42.140;24.762;2023-09-19T13:06:12;99596.63;;;31.39;24.86
73870;BME280;64924;42.140;24.762;2023-09-19T13:08:40;99596.28;;;31.41;24.74
73870;BME280;64924;42.140;24.762;2023-09-19T13:11:17;99595.97;;;31.34;25.12
73870;BME280;64924;42.140;24.762;2023-09-19T13:16:29;99593.06;;;31.04;25.23
73870;BME280;64924;42.140;24.762;2023-09-19T13:18:54;99591.91;;;30.88;25.33
73870;BME280;64924;42.140;24.762;2023-09-19T13:21:33;99589.78;;;30.85;25.66
73870;BME280;64924;42.140;24.762;2023-09-19T13:24:18;99589.63;;;30.81;25.45
73870;BME280;64924;42.140;24.762;2023-09-19T13:26:44;99581.69;;;30.83;25.66
73870;BME280;64924;42.140;24.762;2023-09-19T13:29:09;99579.22;;;30.82;26.02
73870;BME280;64924;42.140;24.762;2023-09-19T13:31:34;99582.00;;;30.99;26.06
73870;BME280;64924;42.140;24.762;2023-09-19T13:34:00;99579.84;;;31.05;26.31
73870;BME280;64924;42.140;24.762;2023-09-19T13:36:26;99574.06;;;31.18;26.24
73870;BME280;64924;42.140;24.762;2023-09-19T13:38:51;99566.75;;;31.26;25.48
73870;BME280;64924;42.140;24.762;2023-09-19T13:41:18;99560.97;;;31.22;25.97
73870;BME280;64924;42.140;24.762;2023-09-19T13:43:43;99561.09;;;31.43;25.58
73870;BME280;64924;42.140;24.762;2023-09-19T13:46:13;99564.38;;;31.45;25.13
73870;BME280;64924;42.140;24.762;2023-09-19T13:48:41;99562.78;;;31.27;25.47
73870;BME280;64924;42.140;24.762;2023-09-19T13:51:06;99553.34;;;31.32;25.35
73870;BME280;64924;42.140;24.762;2023-09-19T13:53:31;99558.63;;;31.42;25.13